Time;durP1;ratioP1;P1;durP2;ratioP2;P2;SDS_P1;SDS_P2;PMS_P1;PMS_P2;Temp;Humidity;BMP_temperature;BMP_pressure;BME280_temperature;BME280_humidity;BME280_pressure;Samples;Min_cycle;Max_cycle;Signal;HPM_P1;HPM_P2
2023/05/07 00:01:47;;;;;;;5.65;4.50;;;;;;;16.94;52.38;99768.94;5074370;28;20456;-77
2023/05/07 00:04:13;;;;;;;11.75;5.15;;;;;;;17.00;52.55;99792.09;5074161;28;20107;-77
2023/05/07 00:06:39;;;;;;;6.07;4.78;;;;;;;16.86;52.87;99794.00;5074346;28;20052;-76
2023/05/07 00:09:05;;;;;;;7.57;5.47;;;;;;;16.68;52.86;99780.56;5074487;28;20496;-76
2023/05/07 00:11:30;;;;;;;6.15;4.60;;;;;;;16.94;53.34;99827.63;5074100;28;20031;-77
2023/05/07 00:13:56;;;;;;;5.65;4.53;;;;;;;16.34;53.27;99734.50;5074040;28;20031;-78
2023/05/07 00:16:21;;;;;;;7.90;4.72;;;;;;;16.54;53.47;99782.44;5073957;28;20052;-76
2023/05/07 00:18:47;;;;;;;6.00;4.55;;;;;;;16.47;53.39;99761.13;5074456;28;20044;-76
2023/05/07 00:21:12;;;;;;;5.13;4.63;;;;;;;16.51;53.65;99766.88;5074149;28;20478;-77
2023/05/07 00:23:38;;;;;;;6.63;4.75;;;;;;;16.39;53.77;99757.88;5074121;28;20040;-76
2023/05/07 00:26:03;;;;;;;6.60;5.05;;;;;;;16.70;53.97;99819.31;5074323;28;20050;-77
2023/05/07 00:28:29;;;;;;;6.43;4.47;;;;;;;16.18;54.19;99741.13;5073855;28;20521;-76
2023/05/07 00:30:54;;;;;;;6.82;5.10;;;;;;;16.59;54.20;99832.44;5074051;28;20032;-77
2023/05/07 00:33:20;;;;;;;6.47;5.15;;;;;;;16.54;54.16;99817.09;5073961;28;20107;-76
2023/05/07 00:35:46;;;;;;;6.07;5.03;;;;;;;16.50;54.41;99814.03;5072384;28;20040;-76
2023/05/07 00:38:11;;;;;;;6.43;5.30;;;;;;;16.04;54.41;99766.16;5073774;28;20028;-76
2023/05/07 00:40:37;;;;;;;6.65;4.70;;;;;;;15.76;54.76;99718.47;5073736;28;20568;-77
2023/05/07 00:43:02;;;;;;;6.72;4.72;;;;;;;16.01;55.01;99761.25;5073724;28;20028;-77
2023/05/07 00:45:29;;;;;;;9.90;5.30;;;;;;;15.95;54.95;99758.59;5073869;28;20031;-77
2023/05/07 00:47:57;;;;;;;7.80;4.90;;;;;;;16.25;55.03;99821.03;5072530;28;20028;-77
2023/05/07 00:50:23;;;;;;;5.47;4.97;;;;;;;15.95;54.69;99775.38;5073557;28;20064;-77
2023/05/07 00:52:49;;;;;;;6.25;5.63;;;;;;;16.14;55.30;99825.16;5073246;28;20063;-76
2023/05/07 00:55:14;;;;;;;8.32;5.72;;;;;;;15.93;55.17;99785.44;5073252;28;20111;-76
2023/05/07 00:57:41;;;;;;;7.78;4.93;;;;;;;16.06;55.40;99811.22;5073311;28;20063;-76
2023/05/07 01:00:08;;;;;;;7.70;5.22;;;;;;;15.52;55.38;99743.81;5073350;28;20029;-77
2023/05/07 01:02:35;;;;;;;8.75;5.38;;;;;;;15.96;55.54;99814.31;5073176;28;20039;-77
2023/05/07 01:05:03;;;;;;;7.82;5.57;;;;;;;15.97;55.72;99815.13;5073284;28;20028;-76
2023/05/07 01:07:30;;;;;;;6.75;5.95;;;;;;;15.82;55.65;99791.38;5073339;28;20024;-76
2023/05/07 01:09:56;;;;;;;7.88;5.45;;;;;;;15.53;55.66;99761.44;5073025;28;20033;-76
2023/05/07 01:12:22;;;;;;;5.88;4.68;;;;;;;15.57;55.95;99759.19;5073002;28;20107;-76
2023/05/07 01:14:49;;;;;;;6.20;5.60;;;;;;;15.56;56.05;99757.53;5073023;28;20036;-76
2023/05/07 01:17:15;;;;;;;5.68;5.18;;;;;;;15.54;55.99;99754.25;5072853;28;20020;-77
2023/05/07 01:19:41;;;;;;;9.13;5.60;;;;;;;15.45;55.98;99739.53;5072807;28;20024;-76
2023/05/07 01:22:11;;;;;;;7.60;5.45;;;;;;;15.70;55.97;99791.19;5072656;28;20518;-76
2023/05/07 01:24:36;;;;;;;8.50;5.75;;;;;;;15.76;55.96;99810.84;5071494;28;20029;-77
2023/05/07 01:27:02;;;;;;;11.43;6.50;;;;;;;15.57;55.89;99786.63;5072740;28;20086;-76
2023/05/07 01:29:28;;;;;;;8.55;5.95;;;;;;;15.12;55.97;99719.03;5072705;28;20056;-77
2023/05/07 01:31:55;;;;;;;7.65;5.60;;;;;;;15.64;56.19;99817.78;5072541;28;20055;-77
2023/05/07 01:34:22;;;;;;;7.47;5.28;;;;;;;15.02;56.59;99723.13;5072506;28;20572;-76
2023/05/07 01:36:48;;;;;;;7.72;5.10;;;;;;;15.51;56.12;99814.03;5072532;28;20485;-76
2023/05/07 01:39:15;;;;;;;9.95;5.50;;;;;;;15.21;56.42;99771.03;5072507;28;20021;-77
2023/05/07 01:41:42;;;;;;;9.38;5.82;;;;;;;14.89;56.81;99731.91;5072425;28;20096;-77
2023/05/07 01:44:12;;;;;;;6.63;4.85;;;;;;;14.68;56.64;99697.47;5072285;28;20028;-77
2023/05/07 01:46:37;;;;;;;6.70;5.95;;;;;;;15.02;56.96;99763.84;5072134;28;20028;-77
2023/05/07 01:49:03;;;;;;;7.40;5.65;;;;;;;14.85;56.72;99741.25;5072346;28;20035;-76
2023/05/07 01:51:29;;;;;;;6.78;5.07;;;;;;;14.98;56.69;99762.59;5072188;28;20559;-76
2023/05/07 01:53:55;;;;;;;9.38;5.80;;;;;;;15.17;57.03;99790.25;5072395;28;20056;-76
2023/05/07 01:56:20;;;;;;;7.70;5.93;;;;;;;14.98;57.00;99770.56;5072210;28;20070;-76
2023/05/07 01:58:46;;;;;;;7.95;5.63;;;;;;;14.71;57.03;99740.41;5071862;28;20024;-75
2023/05/07 02:01:13;;;;;;;8.02;5.60;;;;;;;14.54;57.03;99720.53;5071903;28;20469;-76
2023/05/07 02:03:39;;;;;;;7.90;5.72;;;;;;;14.73;57.02;99756.97;5070802;28;20474;-77
2023/05/07 02:06:04;;;;;;;9.43;6.28;;;;;;;15.08;57.25;99799.44;5072118;28;20063;-77
2023/05/07 02:08:30;;;;;;;9.85;5.60;;;;;;;14.55;56.84;99706.22;5070536;28;20020;-76
2023/05/07 02:10:56;;;;;;;7.10;6.05;;;;;;;15.10;57.09;99803.53;5072032;28;20029;-77
2023/05/07 02:13:22;;;;;;;7.65;5.72;;;;;;;14.77;56.77;99754.72;5070941;28;20107;-76
2023/05/07 02:15:50;;;;;;;7.30;5.80;;;;;;;14.61;56.74;99716.06;5071784;28;20497;-77
2023/05/07 02:18:16;;;;;;;6.68;6.00;;;;;;;14.75;57.09;99741.66;5072117;28;20029;-76
2023/05/07 02:20:42;;;;;;;7.47;5.57;;;;;;;14.57;57.03;99715.63;5072130;28;20517;-76
2023/05/07 02:23:08;;;;;;;7.53;5.80;;;;;;;14.61;57.10;99716.88;5074162;28;20024;-77
2023/05/07 02:25:33;;;;;;;6.93;5.43;;;;;;;14.63;56.72;99733.44;5073635;28;20516;-77
2023/05/07 02:27:59;;;;;;;9.82;5.80;;;;;;;14.83;56.97;99767.22;5071788;28;20045;-76
2023/05/07 02:30:25;;;;;;;9.32;5.75;;;;;;;14.84;57.00;99779.50;5071895;28;20035;-76
2023/05/07 02:32:51;;;;;;;11.32;6.10;;;;;;;14.78;57.34;99777.63;5071771;28;20032;-76
2023/05/07 02:35:16;;;;;;;8.35;6.30;;;;;;;14.38;57.32;99719.00;5071483;28;20020;-77
2023/05/07 02:37:42;;;;;;;9.05;6.07;;;;;;;14.32;57.54;99728.59;5071514;28;20035;-76
2023/05/07 02:40:08;;;;;;;8.65;6.00;;;;;;;14.35;57.66;99740.66;5071515;28;20028;-76
2023/05/07 02:42:33;;;;;;;10.52;5.78;;;;;;;14.32;57.61;99739.22;5071549;28;20035;-76
2023/05/07 02:44:59;;;;;;;9.73;6.55;;;;;;;14.12;57.77;99716.19;5071502;28;20021;-75
2023/05/07 02:47:26;;;;;;;8.20;6.55;;;;;;;14.54;57.74;99777.16;5071532;28;20465;-75
2023/05/07 02:49:52;;;;;;;7.65;6.13;;;;;;;14.24;57.37;99738.56;5074957;28;20021;-77
2023/05/07 02:52:18;;;;;;;6.70;5.88;;;;;;;14.12;57.53;99722.38;5074413;28;20092;-76
2023/05/07 02:54:43;;;;;;;7.88;6.13;;;;;;;14.43;57.67;99753.78;5071224;28;20078;-76
2023/05/07 02:57:08;;;;;;;9.88;6.38;;;;;;;13.88;57.87;99683.81;5070079;28;20095;-76
2023/05/07 02:59:34;;;;;;;10.60;6.65;;;;;;;14.03;57.57;99718.19;5070389;28;20134;-77
2023/05/07 03:01:59;;;;;;;8.00;6.50;;;;;;;14.19;57.52;99733.03;5071289;28;20020;-76
2023/05/07 03:04:25;;;;;;;8.15;6.53;;;;;;;14.34;57.85;99767.41;5071464;28;20024;-77
2023/05/07 03:06:50;;;;;;;8.38;6.68;;;;;;;13.33;57.96;99605.09;5071249;28;20032;-76
2023/05/07 03:09:16;;;;;;;8.23;6.45;;;;;;;14.03;57.88;99715.53;5071261;28;20107;-77
2023/05/07 03:11:41;;;;;;;8.13;6.80;;;;;;;14.31;58.13;99758.00;5075353;28;20036;-76
2023/05/07 03:14:07;;;;;;;8.02;7.10;;;;;;;13.82;57.79;99695.22;5075417;28;20017;-76
2023/05/07 03:16:32;;;;;;;10.85;6.63;;;;;;;14.08;58.01;99752.13;5075384;28;20382;-76
2023/05/07 03:18:58;;;;;;;7.93;6.55;;;;;;;13.81;58.16;99713.97;5075235;28;20023;-76
2023/05/07 03:21:23;;;;;;;9.10;6.82;;;;;;;14.18;58.10;99779.19;5075355;28;20594;-77
2023/05/07 03:23:48;;;;;;;8.15;6.50;;;;;;;14.15;58.17;99772.41;5075174;28;20021;-76
2023/05/07 03:26:14;;;;;;;10.52;6.95;;;;;;;14.00;58.18;99748.63;5073758;28;20028;-78
2023/05/07 03:28:39;;;;;;;10.38;6.00;;;;;;;13.77;58.03;99707.44;5074996;28;20532;-77
2023/05/07 03:31:05;;;;;;;10.27;5.95;;;;;;;13.96;58.04;99733.28;5073706;28;20024;-76
2023/05/07 03:33:33;;;;;;;8.02;6.07;;;;;;;14.22;58.03;99770.63;5074978;28;20099;-76
2023/05/07 03:35:58;;;;;;;11.32;7.10;;;;;;;14.22;58.10;99772.47;5074870;28;20024;-76
2023/05/07 03:38:23;;;;;;;7.53;6.13;;;;;;;13.88;57.91;99715.66;5073811;28;20404;-76
2023/05/07 03:40:49;;;;;;;10.52;6.22;;;;;;;13.65;58.24;99673.47;5075070;28;20404;-76
2023/05/07 03:43:14;;;;;;;7.50;5.60;;;;;;;13.89;57.98;99714.66;5073574;28;20651;-76
2023/05/07 03:45:40;;;;;;;10.95;6.50;;;;;;;13.67;57.93;99673.28;5074396;28;20035;-76
2023/05/07 03:48:05;;;;;;;11.77;6.45;;;;;;;14.29;58.05;99778.63;5074580;28;20027;-77
2023/05/07 03:50:30;;;;;;;7.63;5.68;;;;;;;13.80;57.76;99705.19;5074594;28;20021;-76
2023/05/07 03:52:56;;;;;;;9.30;6.20;;;;;;;14.16;58.16;99775.91;5074648;28;20047;-76
2023/05/07 03:55:21;;;;;;;7.53;6.03;;;;;;;13.47;58.14;99664.38;5074733;28;20482;-76
2023/05/07 03:57:46;;;;;;;6.43;5.82;;;;;;;13.49;57.94;99665.81;5074672;28;20021;-76
2023/05/07 04:00:13;;;;;;;8.95;6.25;;;;;;;13.71;57.88;99692.28;5074556;28;20417;-76
2023/05/07 04:02:38;;;;;;;8.13;6.20;;;;;;;13.52;57.91;99664.63;5073030;28;20017;-76
2023/05/07 04:05:04;;;;;;;8.88;5.95;;;;;;;14.02;57.93;99747.59;5074121;28;20025;-77
2023/05/07 04:07:29;;;;;;;8.10;5.90;;;;;;;14.37;57.79;99810.34;5074160;28;20073;-75
2023/05/07 04:09:54;;;;;;;8.50;5.80;;;;;;;13.80;57.88;99699.91;5074102;28;20036;-76
2023/05/07 04:12:20;;;;;;;6.97;6.28;;;;;;;14.37;57.95;99788.25;5074351;28;20017;-76
2023/05/07 04:14:45;;;;;;;6.25;5.65;;;;;;;14.35;57.73;99775.19;5074440;28;20101;-77
2023/05/07 04:17:10;;;;;;;8.38;6.10;;;;;;;14.37;57.73;99773.16;5072813;28;20020;-76
2023/05/07 04:19:36;;;;;;;6.90;5.82;;;;;;;14.60;57.91;99802.94;5074108;28;20020;-76
2023/05/07 04:22:02;;;;;;;8.20;5.90;;;;;;;14.64;58.03;99798.03;5073925;28;20023;-77
2023/05/07 04:24:27;;;;;;;8.18;6.40;;;;;;;14.15;58.22;99745.88;5074039;28;20090;-76
2023/05/07 04:26:52;;;;;;;7.85;5.93;;;;;;;14.61;58.20;99793.94;5074024;28;20025;-77
2023/05/07 04:29:18;;;;;;;9.20;5.93;;;;;;;14.50;57.93;99767.94;5073849;28;20027;-76
2023/05/07 04:31:44;;;;;;;6.70;5.75;;;;;;;14.35;58.23;99737.19;5073790;28;20024;-77
2023/05/07 04:34:11;;;;;;;10.05;5.80;;;;;;;14.47;57.94;99756.88;5073776;28;20028;-76
2023/05/07 04:36:37;;;;;;;7.28;5.40;;;;;;;14.63;57.95;99753.88;5073727;28;20074;-77
2023/05/07 04:39:03;;;;;;;6.97;5.32;;;;;;;14.77;57.90;99774.16;5073781;28;20043;-77
2023/05/07 04:41:29;;;;;;;8.65;6.25;;;;;;;15.10;57.90;99821.31;5073730;28;20436;-76
2023/05/07 04:43:54;;;;;;;8.57;5.20;;;;;;;14.55;58.15;99722.97;5073570;28;20025;-77
2023/05/07 04:46:20;;;;;;;6.13;4.82;;;;;;;15.02;57.85;99792.25;5073465;28;20456;-76
2023/05/07 04:48:45;;;;;;;6.80;5.22;;;;;;;14.04;58.00;99639.38;5073433;28;20473;-77
2023/05/07 04:51:10;;;;;;;7.07;5.50;;;;;;;15.02;57.89;99793.06;5073175;28;20082;-77
2023/05/07 04:53:37;;;;;;;6.72;5.05;;;;;;;15.33;58.06;99828.94;5072125;28;20115;-76
2023/05/07 04:56:03;;;;;;;7.45;5.60;;;;;;;15.04;57.85;99779.59;5073548;28;20099;-77
2023/05/07 04:58:31;;;;;;;7.00;5.70;;;;;;;15.49;57.77;99831.22;5073299;28;20063;-77
2023/05/07 05:00:57;;;;;;;9.38;5.60;;;;;;;15.04;57.66;99751.16;5073140;28;20095;-76
2023/05/07 05:03:22;;;;;;;7.57;5.13;;;;;;;15.49;58.27;99829.38;5073188;28;20563;-77
2023/05/07 05:05:49;;;;;;;7.00;5.78;;;;;;;15.65;57.99;99846.06;5073212;28;20025;-76
2023/05/07 05:08:15;;;;;;;9.43;6.20;;;;;;;15.69;58.11;99842.78;5073183;28;20020;-76
2023/05/07 05:10:41;;;;;;;9.27;7.00;;;;;;;15.74;58.23;99850.16;5072955;28;20497;-76
2023/05/07 05:13:07;;;;;;;7.90;6.28;;;;;;;15.72;58.14;99841.56;5072957;28;20432;-77
2023/05/07 05:15:33;;;;;;;7.60;6.15;;;;;;;15.49;58.13;99812.59;5072722;28;20078;-76
2023/05/07 05:17:58;;;;;;;6.97;5.70;;;;;;;15.87;57.97;99847.50;5072813;28;20111;-77
2023/05/07 05:20:24;;;;;;;7.97;6.13;;;;;;;15.81;58.61;99845.66;5072753;28;20020;-77
2023/05/07 05:22:49;;;;;;;8.48;6.00;;;;;;;15.34;58.93;99770.22;5072812;28;20024;-77
2023/05/07 05:25:15;;;;;;;6.88;5.95;;;;;;;15.46;58.35;99779.22;5072828;28;20028;-77
2023/05/07 05:27:40;;;;;;;9.55;6.20;;;;;;;15.65;58.60;99811.44;5072824;28;20067;-76
2023/05/07 05:30:06;;;;;;;10.93;5.80;;;;;;;15.68;58.63;99816.38;5072537;28;20024;-77
2023/05/07 05:32:32;;;;;;;10.63;5.88;;;;;;;15.69;58.15;99805.50;5072168;28;20394;-77
2023/05/07 05:34:57;;;;;;;7.45;6.05;;;;;;;15.82;58.35;99821.47;5072772;28;20050;-77
2023/05/07 05:37:22;;;;;;;8.05;6.82;;;;;;;15.98;58.12;99827.41;5072700;28;20107;-77
2023/05/07 05:39:48;;;;;;;10.75;6.28;;;;;;;15.73;58.14;99784.63;5072442;28;20103;-76
2023/05/07 05:42:13;;;;;;;8.95;6.88;;;;;;;16.20;58.05;99845.63;5072417;28;20111;-77
2023/05/07 05:44:39;;;;;;;10.65;6.78;;;;;;;15.87;58.06;99794.25;5072398;28;20039;-76
2023/05/07 05:47:04;;;;;;;8.32;6.20;;;;;;;16.08;57.94;99825.16;5072328;28;20094;-76
2023/05/07 05:49:30;;;;;;;8.30;5.85;;;;;;;16.11;57.95;99849.53;5070958;28;20042;-76
2023/05/07 05:51:55;;;;;;;12.38;6.40;;;;;;;15.76;57.88;99784.22;5070873;28;20123;-77
2023/05/07 05:54:21;;;;;;;6.55;5.82;;;;;;;15.93;57.61;99816.56;5072452;28;20024;-76
2023/05/07 05:56:46;;;;;;;8.02;5.78;;;;;;;15.96;57.89;99810.81;5072270;28;20031;-77
2023/05/07 05:59:12;;;;;;;7.15;5.70;;;;;;;15.94;57.87;99804.88;5070875;28;20482;-76
2023/05/07 06:01:38;;;;;;;10.45;5.53;;;;;;;16.14;57.76;99819.81;5070916;28;20099;-76
2023/05/07 06:04:04;;;;;;;9.05;6.00;;;;;;;16.40;57.47;99848.28;5072171;28;20082;-76
2023/05/07 06:06:30;;;;;;;7.57;5.70;;;;;;;16.21;57.43;99814.47;5072173;28;20017;-75
2023/05/07 06:08:57;;;;;;;6.75;5.13;;;;;;;16.38;57.08;99818.38;5072201;28;20028;-76
2023/05/07 06:11:22;;;;;;;6.72;5.03;;;;;;;16.61;57.05;99851.72;5073695;28;20031;-75
2023/05/07 06:13:48;;;;;;;8.98;5.50;;;;;;;16.21;56.61;99786.00;5075222;28;20028;-77
2023/05/07 06:16:14;;;;;;;8.25;4.90;;;;;;;16.74;56.88;99857.03;5072395;28;20103;-76
2023/05/07 06:18:39;;;;;;;9.32;5.05;;;;;;;16.42;56.60;99808.91;5070416;28;20028;-76
2023/05/07 06:21:04;;;;;;;9.13;5.00;;;;;;;16.48;56.03;99796.59;5071869;28;20174;-76
2023/05/07 06:23:30;;;;;;;7.63;5.38;;;;;;;16.58;55.93;99818.31;5071848;28;20021;-76
2023/05/07 06:25:55;;;;;;;9.60;5.10;;;;;;;16.52;55.93;99789.81;5071932;28;20032;-76
2023/05/07 06:28:21;;;;;;;5.30;4.80;;;;;;;17.10;55.58;99878.69;5071457;28;20071;-76
2023/05/07 06:30:47;;;;;;;8.32;5.05;;;;;;;16.99;55.39;99857.16;5071658;28;20078;-77
2023/05/07 06:33:12;;;;;;;6.75;5.68;;;;;;;17.10;55.66;99862.66;5070485;28;20029;-76
2023/05/07 06:35:37;;;;;;;9.88;5.68;;;;;;;16.93;56.08;99815.31;5071617;28;20031;-77
2023/05/07 06:38:03;;;;;;;6.65;5.10;;;;;;;17.18;56.10;99842.91;5071573;28;20473;-76
2023/05/07 06:40:28;;;;;;;10.07;5.57;;;;;;;17.36;56.01;99876.91;5071503;28;20073;-76
2023/05/07 06:42:53;;;;;;;6.35;4.65;;;;;;;17.09;55.61;99828.16;5071527;28;20507;-76
2023/05/07 06:45:20;;;;;;;8.75;5.00;;;;;;;17.34;55.41;99845.09;5069299;28;20032;-76
2023/05/07 06:47:45;;;;;;;8.57;5.32;;;;;;;17.50;55.37;99873.13;5071368;28;20033;-77
2023/05/07 06:50:11;;;;;;;9.80;5.25;;;;;;;17.17;55.26;99809.28;5071485;28;20424;-77
2023/05/07 06:52:37;;;;;;;7.72;5.30;;;;;;;17.20;55.17;99800.84;5071671;28;20415;-76
2023/05/07 06:55:02;;;;;;;7.47;5.55;;;;;;;17.76;55.13;99880.97;5070157;28;20054;-76
2023/05/07 06:57:27;;;;;;;7.25;5.32;;;;;;;17.69;54.93;99869.53;5071347;28;20033;-76
2023/05/07 06:59:53;;;;;;;6.43;4.78;;;;;;;17.69;54.70;99845.50;5071348;28;20033;-76
2023/05/07 07:02:18;;;;;;;6.97;5.03;;;;;;;18.01;54.63;99880.22;5071455;28;20103;-76
2023/05/07 07:04:44;;;;;;;6.05;4.40;;;;;;;18.03;54.04;99873.63;5071260;28;20468;-77
2023/05/07 07:07:10;;;;;;;8.52;4.90;;;;;;;17.80;53.08;99825.28;5071268;28;20032;-77
2023/05/07 07:09:36;;;;;;;7.10;4.35;;;;;;;17.94;52.99;99858.88;5071407;28;20036;-78
2023/05/07 07:12:01;;;;;;;6.13;3.88;;;;;;;18.12;52.88;99876.81;5071243;28;20029;-76
2023/05/07 07:14:26;;;;;;;7.00;4.43;;;;;;;18.06;52.21;99850.97;5069903;28;20571;-77
2023/05/07 07:16:52;;;;;;;7.50;4.55;;;;;;;18.06;52.35;99845.63;5071172;28;20505;-77
2023/05/07 07:19:17;;;;;;;6.93;5.00;;;;;;;18.41;51.86;99894.03;5070928;28;20027;-77
2023/05/07 07:21:43;;;;;;;6.43;4.45;;;;;;;18.26;51.56;99864.16;5069667;28;20029;-76
2023/05/07 07:24:08;;;;;;;6.28;3.75;;;;;;;18.44;51.45;99874.88;5071099;28;20029;-76
2023/05/07 07:26:34;;;;;;;6.75;4.35;;;;;;;18.52;50.87;99892.50;5071038;28;20029;-77
2023/05/07 07:28:59;;;;;;;8.25;4.63;;;;;;;18.47;50.82;99861.06;5070779;28;20122;-77
2023/05/07 07:31:24;;;;;;;6.97;4.28;;;;;;;18.42;50.39;99855.56;5070927;28;20040;-76
2023/05/07 07:33:50;;;;;;;6.53;4.85;;;;;;;18.68;50.46;99886.63;5069666;28;20031;-75
2023/05/07 07:36:16;;;;;;;5.10;3.70;;;;;;;18.76;50.17;99899.69;5071007;28;20103;-76
2023/05/07 07:38:41;;;;;;;7.18;4.82;;;;;;;18.35;50.09;99828.09;5070918;28;20547;-76
2023/05/07 07:41:08;;;;;;;5.97;4.35;;;;;;;18.58;49.98;99855.00;5070805;28;20499;-77
2023/05/07 07:43:35;;;;;;;7.32;4.57;;;;;;;18.97;49.91;99890.41;5070814;28;20024;-77
2023/05/07 07:46:00;;;;;;;5.18;4.00;;;;;;;18.99;49.77;99883.78;5070800;28;20108;-76
2023/05/07 07:48:26;;;;;;;10.55;4.32;;;;;;;18.55;49.49;99807.28;5069380;28;20549;-77
2023/05/07 07:50:51;;;;;;;5.72;4.10;;;;;;;19.20;49.36;99895.06;5070497;28;20120;-77
2023/05/07 07:53:17;;;;;;;4.22;3.83;;;;;;;19.39;49.05;99909.25;5070585;28;20028;-76
2023/05/07 07:55:43;;;;;;;11.23;4.45;;;;;;;19.09;48.35;99842.28;5071568;28;20020;-77
2023/05/07 07:58:08;;;;;;;7.70;3.90;;;;;;;19.47;48.24;99906.28;5074417;28;20512;-76
2023/05/07 08:00:34;;;;;;;6.75;4.20;;;;;;;19.48;48.10;99910.59;5073065;28;20024;-77
2023/05/07 08:03:00;;;;;;;5.70;4.60;;;;;;;19.56;48.15;99915.66;5074260;28;20382;-77
2023/05/07 08:05:25;;;;;;;4.53;3.47;;;;;;;19.30;47.16;99850.66;5074193;28;20039;-77
2023/05/07 08:07:52;;;;;;;6.78;4.15;;;;;;;19.45;47.12;99863.66;5074187;28;20024;-76
2023/05/07 08:10:21;;;;;;;5.30;4.10;;;;;;;19.29;47.18;99834.81;5074154;28;20093;-77
2023/05/07 08:12:48;;;;;;;5.57;4.03;;;;;;;19.82;47.12;99906.41;5074378;28;20024;-77
2023/05/07 08:15:14;;;;;;;5.55;3.92;;;;;;;19.86;46.63;99891.50;5074009;28;20103;-77
2023/05/07 08:17:40;;;;;;;4.65;3.70;;;;;;;19.39;46.17;99824.41;5073958;28;20457;-76
2023/05/07 08:20:06;;;;;;;7.00;4.00;;;;;;;19.52;45.79;99828.72;5074016;28;20451;-74
2023/05/07 08:22:32;;;;;;;4.93;3.80;;;;;;;19.99;45.54;99893.97;5074001;28;20481;-76
2023/05/07 08:24:57;;;;;;;5.75;3.80;;;;;;;19.88;45.51;99863.44;5073882;28;20032;-77
2023/05/07 08:27:22;;;;;;;7.78;3.95;;;;;;;20.20;45.02;99900.69;5072542;28;20044;-77
2023/05/07 08:29:48;;;;;;;6.90;3.83;;;;;;;19.97;44.56;99845.97;5074180;28;20028;-76
2023/05/07 08:32:14;;;;;;;4.93;3.30;;;;;;;20.47;44.28;99899.19;5068089;28;20394;-76
2023/05/07 08:34:40;;;;;;;4.97;3.25;;;;;;;20.30;43.60;99858.81;5070647;28;20477;-76
2023/05/07 08:37:05;;;;;;;4.35;3.42;;;;;;;19.98;43.30;99798.53;5061691;28;20056;-76
2023/05/07 08:39:30;;;;;;;6.20;3.53;;;;;;;20.74;42.58;99890.66;5071103;28;20482;-76
2023/05/07 08:41:59;;;;;;;4.22;3.00;;;;;;;20.61;41.92;99852.28;5071427;28;20031;-76
2023/05/07 08:44:27;;;;;;;4.95;3.63;;;;;;;20.53;41.09;99830.38;5072005;28;20099;-75
2023/05/07 08:46:55;;;;;;;4.13;3.45;;;;;;;21.03;41.26;99881.63;5069378;28;20077;-76
2023/05/07 08:49:21;;;;;;;4.00;2.72;;;;;;;21.09;41.00;99885.22;5053566;28;20525;-76
2023/05/07 08:51:47;;;;;;;9.43;6.22;;;;;;;21.16;40.25;99867.09;5060225;28;20060;-76
2023/05/07 08:54:16;;;;;;;4.78;3.30;;;;;;;21.22;39.81;99836.63;5073165;28;20086;-75
2023/05/07 08:56:42;;;;;;;4.50;3.13;;;;;;;21.39;39.48;99848.25;5073184;28;20032;-76
2023/05/07 08:59:07;;;;;;;4.25;2.90;;;;;;;21.55;38.88;99843.94;5073397;28;20031;-76
2023/05/07 09:01:35;;;;;;;5.05;3.28;;;;;;;21.49;38.98;99831.47;5073337;28;20016;-76
2023/05/07 09:04:00;;;;;;;13.52;5.15;;;;;;;21.77;38.57;99862.91;5073164;28;20028;-75
2023/05/07 09:06:26;;;;;;;3.60;3.05;;;;;;;22.00;38.08;99878.88;5073181;28;20413;-77
2023/05/07 09:08:53;;;;;;;3.20;2.60;;;;;;;22.19;37.13;99879.47;5072081;28;20028;-75
2023/05/07 09:11:22;;;;;;;5.32;3.10;;;;;;;22.34;36.64;99878.91;5072917;28;20029;-75
2023/05/07 09:13:49;;;;;;;5.07;2.85;;;;;;;22.10;36.49;99819.91;5071629;28;20035;-75
2023/05/07 09:16:15;;;;;;;5.13;2.58;;;;;;;22.51;36.07;99842.00;5064309;28;20029;-74
2023/05/07 09:18:44;;;;;;;3.70;2.78;;;;;;;22.72;36.00;99854.69;5052762;28;20561;-76
2023/05/07 09:21:14;;;;;;;4.65;3.30;;;;;;;22.82;35.54;99848.63;5074065;28;20051;-77
2023/05/07 09:23:39;;;;;;;7.10;2.60;;;;;;;22.89;35.18;99834.97;5076680;28;20032;-75
2023/05/07 09:26:11;;;;;;;5.50;2.63;;;;;;;22.77;35.06;99792.81;5075640;28;20036;-75
2023/05/07 09:28:39;;;;;;;3.47;2.50;;;;;;;23.40;34.99;99874.91;5070257;28;20453;-76
2023/05/07 09:31:04;;;;;;;3.85;2.60;;;;;;;22.66;34.47;99720.28;5070713;28;20081;-77
2023/05/07 09:33:30;;;;;;;4.65;3.03;;;;;;;23.69;34.42;99867.41;5068052;28;20024;-75
2023/05/07 09:35:55;;;;;;;5.03;2.92;;;;;;;23.76;33.79;99848.31;5070469;28;20103;-76
2023/05/07 09:38:21;;;;;;;5.47;2.92;;;;;;;23.92;34.04;99854.66;5067197;28;20023;-73
2023/05/07 09:40:47;;;;;;;4.30;2.50;;;;;;;24.04;34.19;99852.59;5058977;28;20052;-75
2023/05/07 09:43:13;;;;;;;6.07;4.65;;;;;;;24.18;34.09;99851.09;5068356;28;20020;-74
2023/05/07 09:45:39;;;;;;;5.53;3.50;;;;;;;24.16;33.59;99817.34;5068003;28;20104;-78
2023/05/07 09:48:05;;;;;;;4.05;3.25;;;;;;;24.39;33.78;99827.75;5053839;28;20039;-76
2023/05/07 09:50:45;;;;;;;6.00;3.03;;;;;;;24.65;33.10;99834.94;5069936;28;20029;-76
2023/05/07 09:53:11;;;;;;;5.18;2.53;;;;;;;24.60;33.21;99812.50;5070732;28;20080;-76
2023/05/07 09:55:37;;;;;;;4.05;2.80;;;;;;;25.01;33.11;99821.59;5070780;28;20017;-76
2023/05/07 09:58:05;;;;;;;3.47;2.40;;;;;;;24.98;32.71;99800.50;5071957;28;20493;-75
2023/05/07 10:00:31;;;;;;;9.02;6.97;;;;;;;24.89;32.42;99775.88;5071643;28;20046;-76
2023/05/07 10:02:57;;;;;;;5.55;3.50;;;;;;;25.12;32.25;99798.09;5071958;28;20034;-75
2023/05/07 10:05:25;;;;;;;3.17;2.67;;;;;;;25.40;31.95;99823.84;5071704;28;20103;-77
2023/05/07 10:07:50;;;;;;;3.83;2.33;;;;;;;24.66;32.42;99781.75;5071633;28;20043;-76
2023/05/07 10:10:17;;;;;;;6.47;2.38;;;;;;;24.96;32.20;99841.28;5071769;28;20481;-76
2023/05/07 10:12:43;;;;;;;3.88;2.28;;;;;;;25.17;32.06;99830.53;5070559;28;20033;-76
2023/05/07 10:15:10;;;;;;;4.40;2.40;;;;;;;25.15;32.17;99792.16;5070524;28;20039;-76
2023/05/07 10:17:39;;;;;;;5.90;2.70;;;;;;;25.60;31.17;99823.88;5071773;28;20032;-77
2023/05/07 10:20:06;;;;;;;4.25;2.33;;;;;;;25.86;31.11;99817.41;5071634;28;20066;-77
2023/05/07 10:22:44;;;;;;;4.10;2.10;;;;;;;25.52;28.93;99746.00;5071533;28;20078;-75
2023/05/07 10:25:25;;;;;;;3.63;2.28;;;;;;;25.90;29.41;99818.47;5071626;28;20103;-76
2023/05/07 10:27:54;;;;;;;5.50;2.08;;;;;;;26.03;29.16;99819.03;5071337;28;20080;-76
2023/05/07 10:30:31;;;;;;;5.35;2.60;;;;;;;26.00;28.62;99819.56;5071269;28;20568;-76
2023/05/07 10:33:05;;;;;;;4.38;2.20;;;;;;;25.98;28.41;99776.53;5071195;28;20493;-76
2023/05/07 10:35:37;;;;;;;3.33;2.22;;;;;;;25.95;28.46;99736.50;5071599;28;20020;-76
2023/05/07 10:38:04;;;;;;;3.03;1.88;;;;;;;26.68;28.10;99809.94;5071500;28;20137;-76
2023/05/07 10:40:30;;;;;;;10.30;1.95;;;;;;;26.54;27.35;99768.28;5071449;28;20070;-76
2023/05/07 10:43:01;;;;;;;3.58;1.67;;;;;;;26.79;27.40;99797.19;5071509;28;20020;-76
2023/05/07 10:45:28;;;;;;;3.65;1.98;;;;;;;26.90;26.73;99774.38;5071188;28;20024;-75
2023/05/07 10:48:10;;;;;;;7.75;2.20;;;;;;;26.73;26.62;99772.00;5071279;28;20028;-74
2023/05/07 10:50:37;;;;;;;4.03;2.10;;;;;;;26.84;26.31;99767.38;5071192;28;20082;-76
2023/05/07 10:53:17;;;;;;;3.97;2.10;;;;;;;27.39;25.01;99795.22;5071126;28;20051;-75
2023/05/07 10:56:18;;;;;;;1.80;1.70;;;;;;;27.48;24.25;99796.25;5071306;28;20028;-75
2023/05/07 10:58:43;;;;;;;3.72;1.85;;;;;;;27.40;25.37;99796.84;5071335;28;20409;-75
2023/05/07 11:01:11;;;;;;;3.95;1.95;;;;;;;27.49;25.58;99789.72;5070992;28;20020;-75
2023/05/07 11:04:17;;;;;;;4.70;2.67;;;;;;;27.40;25.25;99789.50;5070920;28;20029;-76
2023/05/07 11:07:05;;;;;;;4.78;3.58;;;;;;;27.51;25.51;99782.94;5071402;28;20021;-75
2023/05/07 11:09:52;;;;;;;4.50;2.30;;;;;;;27.57;25.15;99782.91;5071037;28;20376;-75
2023/05/07 11:12:37;;;;;;;2.78;1.80;;;;;;;27.73;24.79;99774.38;5070924;28;20025;-76
2023/05/07 11:15:10;;;;;;;3.45;1.88;;;;;;;27.95;25.15;99776.59;5071121;28;20029;-75
2023/05/07 11:17:53;;;;;;;4.18;2.10;;;;;;;27.98;23.88;99742.66;5069780;28;20024;-76
2023/05/07 11:20:18;;;;;;;3.42;2.00;;;;;;;27.89;25.01;99722.66;5070951;28;20024;-74
2023/05/07 11:22:44;;;;;;;2.42;1.90;;;;;;;27.78;24.48;99703.78;5071082;28;20097;-76
2023/05/07 11:25:10;;;;;;;3.15;2.15;;;;;;;27.99;24.41;99711.69;5070662;28;20021;-76
2023/05/07 11:27:36;;;;;;;5.20;1.73;;;;;;;27.97;24.22;99722.03;5070561;28;20059;-76
2023/05/07 11:30:01;;;;;;;2.80;1.67;;;;;;;28.59;24.29;99783.53;5070931;28;20103;-75